Time;durP1;ratioP1;P1;durP2;ratioP2;P2;SDS_P1;SDS_P2;PMS_P1;PMS_P2;Temp;Humidity;BMP_temperature;BMP_pressure;BME280_temperature;BME280_humidity;BME280_pressure;Samples;Min_cycle;Max_cycle;Signal;HPM_P1;HPM_P2
2021/01/10 04:02:39;;;;;;;41.18;21.27;;;;;;;-5.04;100.00;100503.25;1723297;77;21218;-67
2021/01/10 04:05:09;;;;;;;39.98;21.15;;;;;;;-5.02;100.00;100493.84;1720378;81;21118;-67
2021/01/10 04:07:37;;;;;;;34.48;19.55;;;;;;;-5.01;100.00;100496.74;1722133;81;21182;-65
2021/01/10 04:10:07;;;;;;;38.70;20.27;;;;;;;-5.02;100.00;100491.30;1758634;80;21169;-65
2021/01/10 04:12:35;;;;;;;34.45;18.77;;;;;;;-5.01;100.00;100491.20;1756963;80;21201;-64
2021/01/10 04:15:06;;;;;;;39.05;22.80;;;;;;;-5.00;100.00;100488.20;1756119;80;21177;-64
2021/01/10 04:17:34;;;;;;;41.28;23.92;;;;;;;-4.99;100.00;100496.23;1738575;81;21148;-66
2021/01/10 04:20:04;;;;;;;40.70;23.85;;;;;;;-5.00;100.00;100499.65;1759212;80;21172;-67
2021/01/10 04:22:33;;;;;;;38.83;22.05;;;;;;;-5.00;100.00;100500.92;1734265;81;22431;-67
2021/01/10 04:25:03;;;;;;;38.63;21.45;;;;;;;-5.03;100.00;100504.91;1741732;80;21546;-67
2021/01/10 04:27:31;;;;;;;37.17;21.75;;;;;;;-5.05;100.00;100506.23;1733925;81;21484;-67
2021/01/10 04:30:03;;;;;;;44.05;23.00;;;;;;;-5.08;100.00;100509.39;1757329;79;21610;-67
2021/01/10 04:32:30;;;;;;;41.75;23.15;;;;;;;-5.11;100.00;100508.27;1728746;81;21714;-67
2021/01/10 04:35:00;;;;;;;43.92;24.52;;;;;;;-5.12;100.00;100509.17;1722975;81;22733;-67
2021/01/10 04:37:28;;;;;;;40.85;24.40;;;;;;;-5.14;100.00;100504.17;1739619;81;21595;-67
2021/01/10 04:39:56;;;;;;;38.78;22.32;;;;;;;-5.14;100.00;100511.34;1752656;80;21590;-66
2021/01/10 04:42:25;;;;;;;36.83;22.70;;;;;;;-5.11;100.00;100510.80;1729336;81;22788;-65
2021/01/10 04:44:54;;;;;;;37.42;20.95;;;;;;;-5.09;100.00;100506.48;1733740;81;21467;-65
2021/01/10 04:47:22;;;;;;;38.88;22.65;;;;;;;-5.07;100.00;100508.51;1736774;81;22135;-65
2021/01/10 04:49:51;;;;;;;37.28;21.57;;;;;;;-5.05;100.00;100506.23;1737264;81;22004;-64
2021/01/10 04:52:20;;;;;;;37.95;23.20;;;;;;;-5.03;100.00;100512.54;1728806;81;20925;-67
2021/01/10 04:54:48;;;;;;;41.70;24.20;;;;;;;-5.00;100.00;100516.17;1755086;80;21152;-68
2021/01/10 04:57:17;;;;;;;38.85;23.57;;;;;;;-4.98;100.00;100522.02;1753908;79;21518;-67
2021/01/10 04:59:46;;;;;;;39.83;23.27;;;;;;;-4.99;100.00;100524.19;1755918;79;23547;-63
2021/01/10 05:02:14;;;;;;;41.83;24.85;;;;;;;-4.99;100.00;100530.55;1753553;80;21604;-67
2021/01/10 05:04:43;;;;;;;35.95;20.68;;;;;;;-4.99;100.00;100538.17;1706349;81;21588;-67
2021/01/10 05:07:12;;;;;;;40.38;22.62;;;;;;;-4.97;100.00;100540.17;1729755;81;21950;-66
2021/01/10 05:09:40;;;;;;;39.38;24.95;;;;;;;-4.89;100.00;100541.87;1661744;81;21618;-67
2021/01/10 05:12:09;;;;;;;46.90;24.27;;;;;;;-4.77;100.00;100550.18;1754893;80;21208;-68
2021/01/10 05:14:37;;;;;;;39.45;23.80;;;;;;;-4.66;100.00;100553.00;1758048;80;20993;-68
2021/01/10 05:17:08;;;;;;;33.30;20.37;;;;;;;-4.53;100.00;100562.53;1764125;80;21564;-67
2021/01/10 05:19:37;;;;;;;41.35;23.95;;;;;;;-4.42;100.00;100557.26;1712529;81;21608;-65
2021/01/10 05:22:10;;;;;;;36.33;20.88;;;;;;;-4.30;100.00;100563.88;1706995;80;21120;-66
2021/01/10 05:24:39;;;;;;;43.95;24.82;;;;;;;-4.19;100.00;100567.96;1753494;80;21333;-68
2021/01/10 05:27:08;;;;;;;38.38;22.93;;;;;;;-4.09;100.00;100569.13;1756921;79;21003;-67
2021/01/10 05:29:37;;;;;;;34.08;19.60;;;;;;;-4.00;100.00;100574.17;1735490;81;21031;-65
2021/01/10 05:32:06;;;;;;;36.48;20.35;;;;;;;-3.93;100.00;100576.77;1759218;79;22486;-68
2021/01/10 05:34:35;;;;;;;39.45;22.98;;;;;;;-3.86;100.00;100580.63;1756925;80;21187;-69
2021/01/10 05:37:15;;;;;;;38.38;22.13;;;;;;;-3.79;100.00;100584.48;1754945;80;21366;-67
2021/01/10 05:39:45;;;;;;;38.15;22.00;;;;;;;-3.74;100.00;100582.50;1757236;80;21116;-67
2021/01/10 05:42:13;;;;;;;39.88;24.37;;;;;;;-3.68;100.00;100592.33;1759843;80;21534;-66
2021/01/10 05:44:48;;;;;;;41.35;23.85;;;;;;;-3.62;100.00;100582.73;1753532;80;21132;-68
2021/01/10 05:47:18;;;;;;;35.90;22.15;;;;;;;-3.56;100.00;100593.42;1756091;79;21117;-66
2021/01/10 05:49:51;;;;;;;41.00;24.05;;;;;;;-3.50;100.00;100598.61;1758437;80;22521;-69
2021/01/10 05:52:20;;;;;;;38.33;23.10;;;;;;;-3.44;100.00;100598.29;1753661;79;21076;-67
2021/01/10 05:54:52;;;;;;;39.10;22.13;;;;;;;-3.39;100.00;100598.84;1733395;80;21075;-68
2021/01/10 05:57:29;;;;;;;40.60;25.17;;;;;;;-3.34;100.00;100603.22;1754386;79;21065;-69
2021/01/10 05:59:57;;;;;;;31.62;20.25;;;;;;;-3.28;100.00;100613.09;1754392;80;21055;-69
2021/01/10 06:02:34;;;;;;;52.25;22.67;;;;;;;-3.23;100.00;100614.91;1741728;79;21189;-69
2021/01/10 06:07:58;;;;;;;37.20;21.20;;;;;;;-3.08;100.00;100617.06;1815122;78;22364;-70
2021/01/10 06:10:27;;;;;;;40.45;24.60;;;;;;;-3.07;100.00;100620.42;1794573;79;20929;-68
2021/01/10 06:13:05;;;;;;;35.08;21.10;;;;;;;-3.03;100.00;100618.91;1798934;79;21184;-69
2021/01/10 06:15:35;;;;;;;36.10;23.00;;;;;;;-2.98;100.00;100621.20;1793405;79;20933;-69
2021/01/10 06:18:05;;;;;;;32.53;19.98;;;;;;;-2.94;100.00;100629.04;1755226;80;21065;-67
2021/01/10 06:20:34;;;;;;;34.78;20.62;;;;;;;-2.89;100.00;100629.59;1725162;82;20947;-70
2021/01/10 06:23:05;;;;;;;38.92;24.32;;;;;;;-2.84;100.00;100634.42;1723718;82;21200;-69
2021/01/10 06:25:40;;;;;;;33.78;21.25;;;;;;;-2.81;100.00;100635.52;1742901;81;22200;-69
2021/01/10 06:28:16;;;;;;;36.50;22.35;;;;;;;-2.77;100.00;100640.81;1725809;82;21026;-69
2021/01/10 06:30:55;;;;;;;44.00;26.73;;;;;;;-2.72;100.00;100636.29;1726389;82;20903;-69
2021/01/10 06:33:30;;;;;;;42.58;24.50;;;;;;;-2.68;100.00;100631.83;1723555;82;21487;-72
2021/01/10 06:36:06;;;;;;;37.48;23.10;;;;;;;-2.64;100.00;100635.84;1728352;82;21006;-70
2021/01/10 06:38:36;;;;;;;39.08;24.37;;;;;;;-2.59;100.00;100632.56;1732241;81;22189;-70
2021/01/10 06:41:37;;;;;;;38.15;22.30;;;;;;;-2.56;100.00;100638.31;1742754;81;20967;-71
2021/01/10 06:44:06;;;;;;;43.40;25.48;;;;;;;-2.52;100.00;100633.39;1738841;81;21547;-71
2021/01/10 06:46:35;;;;;;;35.58;23.42;;;;;;;-2.44;100.00;100632.94;1740812;81;20965;-71
2021/01/10 06:49:04;;;;;;;38.78;24.30;;;;;;;-2.37;100.00;100630.85;1742925;81;21657;-70
2021/01/10 06:51:33;;;;;;;33.08;20.65;;;;;;;-2.29;100.00;100635.86;1741233;81;21212;-71
2021/01/10 06:54:05;;;;;;;37.30;23.55;;;;;;;-2.22;100.00;100642.25;1737853;81;21598;-71
2021/01/10 06:56:33;;;;;;;35.73;22.45;;;;;;;-2.15;100.00;100643.17;1737534;81;21004;-72
2021/01/10 06:59:11;;;;;;;37.30;23.32;;;;;;;-2.12;100.00;100648.06;1708054;81;21180;-70
2021/01/10 07:01:56;;;;;;;36.30;22.50;;;;;;;-2.09;100.00;100645.34;1742946;81;21226;-71
2021/01/10 07:04:38;;;;;;;33.35;22.10;;;;;;;-2.10;100.00;100647.53;1746406;81;21270;-74
2021/01/10 07:07:07;;;;;;;37.75;22.30;;;;;;;-2.08;100.00;100645.72;1738795;81;22525;-72
2021/01/10 07:09:55;;;;;;;31.65;21.02;;;;;;;-2.05;100.00;100648.06;1739878;81;20984;-72
2021/01/10 07:12:23;;;;;;;36.85;22.32;;;;;;;-2.02;100.00;100651.72;1739570;81;21003;-69
2021/01/10 07:14:52;;;;;;;36.60;23.15;;;;;;;-1.98;100.00;100651.89;1739699;81;22603;-73
2021/01/10 07:17:21;;;;;;;34.48;22.98;;;;;;;-1.93;100.00;100649.06;1734547;82;21450;-73
2021/01/10 07:19:51;;;;;;;36.17;22.15;;;;;;;-1.89;100.00;100653.91;1733166;81;21627;-73
2021/01/10 07:22:30;;;;;;;32.80;21.62;;;;;;;-1.85;100.00;100650.72;1729785;81;21090;-70
2021/01/10 07:25:33;;;;;;;34.38;21.07;;;;;;;-1.82;100.00;100659.02;1722415;82;21219;-73
2021/01/10 07:28:34;;;;;;;36.60;23.85;;;;;;;-1.80;100.00;100652.06;1732652;81;21164;-74
2021/01/10 07:31:10;;;;;;;33.55;19.95;;;;;;;-1.77;100.00;100658.27;1723804;82;21258;-75
2021/01/10 07:33:40;;;;;;;38.55;23.90;;;;;;;-1.74;100.00;100655.53;1729163;81;21229;-75
2021/01/10 07:36:09;;;;;;;38.88;23.40;;;;;;;-1.71;100.00;100660.42;1727117;82;21027;-79
2021/01/10 07:38:37;;;;;;;34.40;21.68;;;;;;;-1.64;100.00;100666.45;1739863;81;21033;-79
2021/01/10 07:41:27;;;;;;;40.85;24.98;;;;;;;-1.55;100.00;100668.45;1729173;82;21118;-80
2021/01/10 07:43:57;;;;;;;37.10;23.42;;;;;;;-1.48;100.00;100659.46;1733967;81;21218;-80
2021/01/10 07:46:59;;;;;;;34.90;23.38;;;;;;;-1.37;100.00;100651.13;1723113;82;20966;-82
2021/01/10 07:49:30;;;;;;;37.78;24.23;;;;;;;-1.28;100.00;100649.28;1729486;81;21701;-77
2021/01/10 07:51:59;;;;;;;32.75;22.75;;;;;;;-1.18;100.00;100655.43;1722753;82;21642;-75
2021/01/10 07:54:48;;;;;;;36.45;23.98;;;;;;;-1.09;100.00;100650.21;1730457;81;21204;-73
2021/01/10 07:57:32;;;;;;;35.63;23.42;;;;;;;-0.99;100.00;100652.52;1732301;81;22130;-73
2021/01/10 08:00:07;;;;;;;35.28;23.35;;;;;;;-0.84;100.00;100655.83;1723724;82;21156;-74
2021/01/10 08:03:06;;;;;;;31.30;20.75;;;;;;;-0.70;100.00;100650.63;1718692;82;21559;-70
2021/01/10 08:05:36;;;;;;;34.60;22.07;;;;;;;-0.58;100.00;100657.50;1733852;81;21623;-71
2021/01/10 08:08:17;;;;;;;32.70;21.40;;;;;;;-0.42;100.00;100653.45;1718348;82;21502;-71
2021/01/10 08:10:54;;;;;;;30.60;22.10;;;;;;;-0.29;100.00;100653.47;1722063;82;22302;-73
2021/01/10 08:13:36;;;;;;;33.42;22.48;;;;;;;-0.16;100.00;100662.41;1723390;82;21583;-71
2021/01/10 08:16:09;;;;;;;36.23;23.38;;;;;;;-0.03;100.00;100652.98;1722178;82;21135;-72
2021/01/10 08:18:47;;;;;;;32.28;20.88;;;;;;;0.07;100.00;100653.97;1730496;82;21567;-73
2021/01/10 08:21:16;;;;;;;34.63;23.73;;;;;;;0.16;100.00;100636.69;1729603;82;21548;-72
2021/01/10 08:23:48;;;;;;;32.23;21.87;;;;;;;0.18;100.00;100641.23;1723135;82;21202;-73
2021/01/10 08:26:17;;;;;;;30.60;21.45;;;;;;;0.16;100.00;100633.31;1723621;82;21148;-70
2021/01/10 08:28:57;;;;;;;36.00;23.02;;;;;;;0.14;100.00;100626.17;1730278;82;20935;-72
2021/01/10 08:31:28;;;;;;;29.70;21.55;;;;;;;0.11;100.00;100623.34;1734364;82;21546;-69
2021/01/10 08:34:02;;;;;;;32.53;22.30;;;;;;;0.11;100.00;100625.09;1730752;82;21137;-69
2021/01/10 08:36:30;;;;;;;33.95;23.18;;;;;;;0.08;100.00;100624.87;1722569;82;22142;-70
2021/01/10 08:39:05;;;;;;;32.08;20.68;;;;;;;0.00;100.00;100623.30;1729156;82;21744;-69
2021/01/10 08:44:25;;;;;;;35.87;22.80;;;;;;;-0.17;100.00;100623.63;1829029;77;23142;-71
2021/01/10 08:47:07;;;;;;;29.50;20.82;;;;;;;-0.28;100.00;100628.20;1710872;81;21021;-70
2021/01/10 08:49:36;;;;;;;34.18;21.97;;;;;;;-0.34;100.00;100630.73;1718632;80;21209;-70
2021/01/10 08:52:06;;;;;;;35.17;21.37;;;;;;;-0.38;100.00;100626.73;1716330;81;21022;-70
2021/01/10 08:54:36;;;;;;;35.10;23.73;;;;;;;-0.40;100.00;100616.23;1725898;81;21638;-71
2021/01/10 08:57:04;;;;;;;35.85;23.57;;;;;;;-0.42;100.00;100622.72;1719053;81;21065;-69
2021/01/10 08:59:38;;;;;;;36.93;24.27;;;;;;;-0.42;100.00;100624.46;1704801;81;20947;-70
2021/01/10 09:02:11;;;;;;;39.73;25.08;;;;;;;-0.42;100.00;100625.27;1714179;81;21410;-69
2021/01/10 09:04:42;;;;;;;36.15;22.45;;;;;;;-0.39;100.00;100624.26;1718346;80;21013;-69
2021/01/10 09:07:15;;;;;;;38.85;24.40;;;;;;;-0.32;100.00;100622.93;1726293;81;21002;-69
2021/01/10 09:09:56;;;;;;;36.65;24.05;;;;;;;-0.21;100.00;100614.52;1719723;81;21162;-70
2021/01/10 09:12:43;;;;;;;39.25;24.57;;;;;;;-0.07;100.00;100597.73;1693567;81;21073;-71
2021/01/10 09:15:24;;;;;;;35.80;24.23;;;;;;;-0.01;100.00;100601.95;1727845;80;21709;-70
2021/01/10 09:18:02;;;;;;;33.95;24.23;;;;;;;0.04;100.00;100598.25;1725768;80;20986;-72
2021/01/10 09:20:48;;;;;;;35.63;24.40;;;;;;;0.31;100.00;100595.52;1731187;81;21286;-73
2021/01/10 09:23:18;;;;;;;34.13;22.75;;;;;;;0.73;100.00;100589.87;1717189;81;21104;-72
2021/01/10 09:25:46;;;;;;;36.28;25.82;;;;;;;1.14;100.00;100585.20;1725680;81;21583;-72
2021/01/10 09:28:19;;;;;;;37.93;26.05;;;;;;;1.56;100.00;100590.14;1727475;80;21260;-75
2021/01/10 09:30:55;;;;;;;37.03;25.17;;;;;;;1.93;100.00;100589.87;1698861;82;21068;-72
2021/01/10 09:33:30;;;;;;;33.98;23.83;;;;;;;2.34;100.00;100593.53;1718302;80;21010;-75
2021/01/10 09:35:59;;;;;;;37.35;24.75;;;;;;;2.74;100.00;100592.93;1725032;81;21077;-71
2021/01/10 09:38:31;;;;;;;31.33;23.05;;;;;;;2.97;100.00;100590.58;1726385;81;21022;-73
2021/01/10 09:41:08;;;;;;;31.75;22.40;;;;;;;3.12;100.00;100590.61;1726972;81;21202;-73
2021/01/10 09:43:47;;;;;;;34.83;23.00;;;;;;;3.26;100.00;100584.33;1725557;80;21117;-75
2021/01/10 09:46:28;;;;;;;32.78;24.32;;;;;;;3.45;100.00;100586.18;1720206;82;21552;-72
2021/01/10 09:49:03;;;;;;;31.65;23.20;;;;;;;3.72;100.00;100592.05;1706130;82;21085;-72
2021/01/10 09:51:40;;;;;;;28.45;20.12;;;;;;;3.96;100.00;100578.81;1718243;82;21065;-71
2021/01/10 09:54:16;;;;;;;29.27;21.02;;;;;;;4.22;100.00;100575.75;1711730;82;21471;-71
2021/01/10 09:56:55;;;;;;;29.00;21.07;;;;;;;4.44;100.00;100574.69;1711412;82;21951;-70
2021/01/10 09:59:43;;;;;;;29.65;22.65;;;;;;;4.66;100.00;100572.28;1703089;82;22183;-71
2021/01/10 10:02:18;;;;;;;30.82;23.40;;;;;;;4.78;100.00;100571.20;1690210;82;21061;-71
2021/01/10 10:04:53;;;;;;;29.60;21.93;;;;;;;4.78;100.00;100569.44;1695566;82;21113;-71
2021/01/10 10:07:36;;;;;;;26.80;20.53;;;;;;;4.78;100.00;100566.05;1712164;82;23081;-71
2021/01/10 10:10:07;;;;;;;31.68;22.13;;;;;;;4.75;100.00;100563.25;1708487;82;21838;-72
2021/01/10 10:12:35;;;;;;;31.97;23.13;;;;;;;4.69;100.00;100565.08;1715326;81;20990;-72
2021/01/10 10:15:07;;;;;;;33.67;23.20;;;;;;;4.64;100.00;100568.08;1709008;82;21850;-71
2021/01/10 10:17:36;;;;;;;31.70;22.73;;;;;;;4.71;100.00;100557.21;1679452;84;21425;-72
2021/01/10 10:20:06;;;;;;;30.63;22.37;;;;;;;4.75;100.00;100557.27;1711424;81;21765;-72
2021/01/10 10:22:36;;;;;;;32.23;23.83;;;;;;;4.76;100.00;100555.83;1716765;82;21767;-72
2021/01/10 10:25:07;;;;;;;33.17;23.33;;;;;;;4.90;100.00;100553.79;1710590;81;21578;-74
2021/01/10 10:27:35;;;;;;;26.62;19.87;;;;;;;5.03;100.00;100554.30;1709814;82;21660;-73
2021/01/10 10:30:04;;;;;;;27.55;20.32;;;;;;;5.02;100.00;100548.31;1704972;82;21176;-70
2021/01/10 10:32:33;;;;;;;27.05;20.43;;;;;;;4.91;100.00;100546.38;1704985;81;21212;-70
2021/01/10 10:35:02;;;;;;;28.20;20.37;;;;;;;4.75;100.00;100541.30;1713567;82;21498;-73
2021/01/10 10:37:30;;;;;;;30.72;22.70;;;;;;;4.64;100.00;100539.67;1711871;82;20974;-72
2021/01/10 10:39:59;;;;;;;30.00;21.20;;;;;;;4.61;100.00;100538.66;1705442;82;21014;-72
2021/01/10 10:42:27;;;;;;;29.27;20.97;;;;;;;4.62;100.00;100537.72;1700959;82;21567;-73
2021/01/10 10:44:56;;;;;;;28.00;19.85;;;;;;;4.62;100.00;100534.30;1707245;82;22176;-75
2021/01/10 10:47:24;;;;;;;27.37;19.37;;;;;;;4.54;100.00;100527.24;1690910;82;21166;-72
2021/01/10 10:49:53;;;;;;;28.05;20.72;;;;;;;4.42;100.00;100531.41;1689859;84;21213;-73
2021/01/10 10:52:23;;;;;;;26.35;19.07;;;;;;;4.36;100.00;100528.91;1684405;84;21769;-73
2021/01/10 10:54:54;;;;;;;;;;;;;;;4.26;100.00;100526.79;1690024;83;21288;-79
2021/01/10 10:57:23;;;;;;;29.15;19.23;;;;;;;4.08;100.00;100529.21;1688710;83;21217;-77
2021/01/10 10:59:52;;;;;;;28.57;19.85;;;;;;;3.86;100.00;100532.39;1687809;83;21222;-72
2021/01/10 11:02:23;;;;;;;27.15;18.67;;;;;;;3.68;100.00;100533.16;1683783;84;21133;-74
2021/01/10 11:04:52;;;;;;;26.20;18.15;;;;;;;3.50;100.00;100549.23;1686220;83;28668;-76
2021/01/10 11:07:21;;;;;;;30.50;20.32;;;;;;;3.44;100.00;100547.16;1683014;84;21177;-77
2021/01/10 11:09:51;;;;;;;28.15;19.75;;;;;;;3.41;100.00;100550.83;1675176;84;21656;-71
2021/01/10 11:12:21;;;;;;;28.30;19.75;;;;;;;3.44;100.00;100552.31;1669838;84;22558;-75
2021/01/10 11:14:49;;;;;;;30.97;21.65;;;;;;;3.45;100.00;100555.70;1667633;84;21574;-72
2021/01/10 11:17:19;;;;;;;28.90;21.10;;;;;;;3.42;100.00;100551.64;1667666;84;21051;-73
2021/01/10 11:19:48;;;;;;;31.10;22.52;;;;;;;3.40;100.00;100549.17;1668767;84;21659;-72
2021/01/10 11:22:17;;;;;;;32.53;23.40;;;;;;;3.39;100.00;100559.63;1670129;84;21404;-72
2021/01/10 11:24:46;;;;;;;32.50;23.50;;;;;;;3.36;100.00;100554.25;1671630;84;21202;-70
2021/01/10 11:27:15;;;;;;;30.77;20.70;;;;;;;3.34;100.00;100556.16;1669981;84;21620;-73
2021/01/10 11:29:45;;;;;;;31.12;21.93;;;;;;;3.36;100.00;100558.11;1667366;84;21221;-72
2021/01/10 11:32:13;;;;;;;31.80;21.87;;;;;;;3.37;100.00;100558.92;1668828;84;21230;-73
2021/01/10 11:34:42;;;;;;;35.80;22.00;;;;;;;3.44;100.00;100567.78;1668781;84;21264;-72
2021/01/10 11:37:11;;;;;;;29.27;18.90;;;;;;;3.56;100.00;100571.08;1667609;84;21099;-73
2021/01/10 11:39:39;;;;;;;29.52;20.12;;;;;;;3.58;100.00;100571.30;1641295;84;21165;-72
2021/01/10 11:42:08;;;;;;;56.35;36.55;;;;;;;3.44;100.00;100578.56;1668223;84;21096;-72
2021/01/10 11:44:37;;;;;;;156.20;81.70;;;;;;;3.23;100.00;100585.05;1688259;84;21617;-69
2021/01/10 11:47:05;;;;;;;161.18;84.90;;;;;;;3.00;100.00;100586.95;1700917;81;21368;-70
2021/01/10 11:49:33;;;;;;;44.88;29.37;;;;;;;2.78;100.00;100586.11;1698390;82;21058;-71
2021/01/10 11:52:01;;;;;;;38.80;26.15;;;;;;;2.60;100.00;100590.17;1708366;82;21623;-69
2021/01/10 11:54:29;;;;;;;37.17;27.05;;;;;;;2.43;100.00;100597.48;1698903;81;21540;-71
2021/01/10 11:56:58;;;;;;;29.48;21.40;;;;;;;2.28;100.00;100599.18;1701323;81;21620;-68
2021/01/10 11:59:26;;;;;;;37.53;26.05;;;;;;;2.14;100.00;100601.54;1698353;82;22323;-72
2021/01/10 12:01:55;;;;;;;36.48;25.37;;;;;;;2.04;100.00;100603.99;1701915;82;21576;-73
2021/01/10 12:04:25;;;;;;;43.55;30.55;;;;;;;1.94;100.00;100600.52;1688026;82;21473;-70
2021/01/10 12:07:00;;;;;;;39.73;27.37;;;;;;;1.87;100.00;100605.78;1705929;81;21471;-70
2021/01/10 12:09:28;;;;;;;47.90;29.60;;;;;;;1.78;100.00;100610.33;1679324;83;21193;-72
2021/01/10 12:11:57;;;;;;;44.13;30.40;;;;;;;1.68;100.00;100606.37;1706578;82;21405;-72
2021/01/10 12:14:26;;;;;;;36.95;25.20;;;;;;;1.63;100.00;100608.02;1702271;82;21058;-71
2021/01/10 12:16:55;;;;;;;33.92;24.30;;;;;;;1.62;100.00;100607.64;1705141;83;21526;-72
2021/01/10 12:19:27;;;;;;;34.67;23.80;;;;;;;1.63;100.00;100608.02;1707389;82;21497;-71
2021/01/10 12:21:54;;;;;;;37.05;24.12;;;;;;;1.62;100.00;100602.98;1697893;82;20935;-72
2021/01/10 12:24:23;;;;;;;38.00;26.10;;;;;;;1.61;100.00;100598.31;1704502;82;21642;-71
2021/01/10 12:26:52;;;;;;;35.00;25.10;;;;;;;1.57;100.00;100600.77;1713418;82;21588;-71
2021/01/10 12:29:21;;;;;;;37.30;25.00;;;;;;;1.52;100.00;100592.60;1708987;82;21061;-71
2021/01/10 12:31:58;;;;;;;36.20;23.50;;;;;;;1.43;100.00;100597.13;1714687;82;21575;-71
2021/01/10 12:34:27;;;;;;;33.85;25.32;;;;;;;1.35;100.00;100602.03;1708918;82;21133;-71
2021/01/10 12:36:58;;;;;;;38.55;27.67;;;;;;;1.29;100.00;100603.76;1711882;82;21602;-71
2021/01/10 12:39:28;;;;;;;46.70;29.95;;;;;;;1.21;100.00;100616.73;1714127;82;20967;-70
2021/01/10 12:41:56;;;;;;;33.28;23.77;;;;;;;1.18;100.00;100612.29;1707258;82;20939;-70
2021/01/10 12:44:24;;;;;;;32.50;22.25;;;;;;;1.16;100.00;100609.81;1708597;82;20919;-73
2021/01/10 12:46:54;;;;;;;30.08;20.95;;;;;;;1.16;100.00;100616.23;1711578;82;21070;-70
2021/01/10 12:49:23;;;;;;;31.85;22.27;;;;;;;1.15;100.00;100614.61;1725094;83;22102;-70
2021/01/10 12:51:51;;;;;;;33.20;21.42;;;;;;;1.12;100.00;100617.87;1719994;83;21060;-71
2021/01/10 12:54:19;;;;;;;32.98;22.90;;;;;;;1.03;100.00;100616.80;1720663;83;21084;-71
2021/01/10 12:56:49;;;;;;;37.45;23.67;;;;;;;0.91;100.00;100617.23;1719587;83;21646;-73
2021/01/10 12:59:17;;;;;;;29.98;20.55;;;;;;;0.84;100.00;100619.89;1723583;83;22727;-69
2021/01/10 13:01:46;;;;;;;33.00;22.80;;;;;;;0.78;100.00;100623.36;1720753;83;21391;-68
2021/01/10 13:04:15;;;;;;;32.28;20.85;;;;;;;0.73;100.00;100623.70;1721878;83;21164;-69
2021/01/10 13:06:45;;;;;;;30.02;19.05;;;;;;;0.64;100.00;100631.57;1720650;83;21494;-68
2021/01/10 13:09:14;;;;;;;28.42;20.62;;;;;;;0.57;100.00;100625.27;1721353;83;21037;-69
2021/01/10 13:11:44;;;;;;;33.33;23.92;;;;;;;0.52;100.00;100623.47;1720790;83;21074;-68
2021/01/10 13:14:13;;;;;;;31.00;21.85;;;;;;;0.44;100.00;100623.20;1721894;83;21533;-70
2021/01/10 13:16:45;;;;;;;38.35;26.85;;;;;;;0.37;100.00;100623.28;1718041;83;21077;-69
2021/01/10 13:19:16;;;;;;;41.88;31.97;;;;;;;0.29;100.00;100627.66;1746860;81;20990;-69
2021/01/10 13:21:45;;;;;;;;;;;;;;;0.22;100.00;100628.55;1723336;83;20949;-69
2021/01/10 13:24:14;;;;;;;140.88;95.95;;;;;;;0.19;100.00;100633.91;1722051;83;20322;-68
2021/01/10 13:26:43;;;;;;;76.33;53.20;;;;;;;0.14;100.00;100628.27;1722786;83;23434;-68
2021/01/10 13:29:12;;;;;;;67.15;46.37;;;;;;;0.09;100.00;100622.66;1722224;83;21543;-70
2021/01/10 13:31:42;;;;;;;65.83;46.65;;;;;;;0.05;100.00;100626.36;1711273;82;21669;-68
2021/01/10 13:34:11;;;;;;;89.07;55.95;;;;;;;0.01;100.00;100632.63;1678924;84;21230;-69
2021/01/10 13:36:40;;;;;;;82.42;49.88;;;;;;;-0.07;100.00;100633.62;1654864;85;21216;-68
2021/01/10 13:39:09;;;;;;;56.20;35.75;;;;;;;-0.14;100.00;100633.67;1679965;84;21200;-70
2021/01/10 13:41:39;;;;;;;89.07;55.25;;;;;;;-0.20;100.00;100634.08;1683578;83;21213;-68
2021/01/10 13:44:08;;;;;;;104.97;64.60;;;;;;;-0.25;100.00;100640.80;1681793;84;21055;-70
2021/01/10 13:46:38;;;;;;;59.58;40.85;;;;;;;-0.30;100.00;100642.41;1683904;84;21440;-68
2021/01/10 13:49:08;;;;;;;89.67;57.50;;;;;;;-0.33;100.00;100641.33;1706803;82;21568;-68
2021/01/10 13:51:37;;;;;;;52.17;36.03;;;;;;;-0.35;100.00;100634.19;1710636;82;21416;-70
2021/01/10 13:54:06;;;;;;;40.08;27.27;;;;;;;-0.38;100.00;100643.82;1672705;84;21037;-68
2021/01/10 13:56:35;;;;;;;33.33;24.27;;;;;;;-0.42;100.00;100642.39;1707835;82;21567;-68
2021/01/10 13:59:04;;;;;;;37.90;26.65;;;;;;;-0.45;100.00;100652.40;1707776;82;21184;-68
2021/01/10 14:01:34;;;;;;;40.25;27.75;;;;;;;-0.48;100.00;100648.75;1706729;82;21153;-68
2021/01/10 14:04:03;;;;;;;61.08;39.55;;;;;;;-0.51;100.00;100647.20;1694372;82;21442;-68
2021/01/10 14:06:34;;;;;;;175.95;103.07;;;;;;;-0.53;100.00;100659.75;1703459;82;21181;-68
2021/01/10 14:09:03;;;;;;;137.10;87.42;;;;;;;-0.56;100.00;100661.25;1702646;82;21136;-68
2021/01/10 14:11:31;;;;;;;129.42;81.20;;;;;;;-0.56;100.00;100667.66;1698969;82;21128;-68
2021/01/10 14:14:01;;;;;;;192.47;109.03;;;;;;;-0.58;100.00;100667.73;1707129;81;21148;-68
2021/01/10 14:16:30;;;;;;;340.15;190.32;;;;;;;-0.57;100.00;100668.55;1701887;81;21270;-69
2021/01/10 14:19:00;;;;;;;251.45;138.52;;;;;;;-0.58;100.00;100666.92;1698803;81;21168;-69
2021/01/10 14:21:30;;;;;;;271.55;150.18;;;;;;;-0.57;100.00;100664.71;1696418;82;21497;-69
2021/01/10 14:24:01;;;;;;;114.40;68.57;;;;;;;-0.58;100.00;100666.45;1709572;82;21065;-69
2021/01/10 14:26:32;;;;;;;53.85;35.38;;;;;;;-0.57;100.00;100669.40;1697162;82;21143;-69
2021/01/10 14:29:01;;;;;;;76.07;57.20;;;;;;;-0.57;100.00;100673.23;1699258;82;22137;-69
2021/01/10 14:31:29;;;;;;;74.17;53.92;;;;;;;-0.56;100.00;100674.05;1698493;82;21169;-69
2021/01/10 14:34:00;;;;;;;49.65;34.38;;;;;;;-0.56;100.00;100674.87;1699369;82;21149;-70
2021/01/10 14:36:28;;;;;;;44.40;28.80;;;;;;;-0.55;100.00;100674.41;1704822;81;21611;-69
2021/01/10 14:38:56;;;;;;;44.95;28.25;;;;;;;-0.57;100.00;100670.68;1696013;82;21266;-69
2021/01/10 14:41:27;;;;;;;97.05;50.28;;;;;;;-0.55;100.00;100675.22;1695238;82;21391;-69
2021/01/10 14:43:56;;;;;;;98.15;55.48;;;;;;;-0.55;100.00;100679.53;1692660;82;21108;-69
2021/01/10 14:46:24;;;;;;;54.77;35.28;;;;;;;-0.54;100.00;100685.00;1710229;82;21160;-70
2021/01/10 14:48:55;;;;;;;61.80;37.53;;;;;;;-0.54;100.00;100690.94;1707621;82;21611;-70
2021/01/10 14:51:24;;;;;;;50.75;34.03;;;;;;;-0.54;100.00;100693.50;1713114;82;21663;-69
2021/01/10 14:53:53;;;;;;;60.38;40.00;;;;;;;-0.54;100.00;100695.24;1699634;82;22162;-70
2021/01/10 14:56:23;;;;;;;55.05;36.63;;;;;;;-0.55;100.00;100696.98;1705250;82;21640;-69
2021/01/10 14:58:51;;;;;;;51.15;36.93;;;;;;;-0.56;100.00;100698.37;1697315;82;21136;-70
2021/01/10 15:01:21;;;;;;;49.33;36.13;;;;;;;-0.55;100.00;100701.29;1699182;82;21006;-70
2021/01/10 15:03:55;;;;;;;48.30;35.80;;;;;;;-0.57;100.00;100703.97;1703486;81;21618;-72
2021/01/10 15:06:23;;;;;;;39.78;30.30;;;;;;;-0.58;100.00;100710.45;1701343;82;21328;-72
2021/01/10 15:08:53;;;;;;;37.35;25.37;;;;;;;-0.61;100.00;100700.40;1702059;82;21256;-70
2021/01/10 15:11:28;;;;;;;38.65;24.40;;;;;;;-0.63;100.00;100700.52;1697335;82;21065;-71
2021/01/10 15:14:00;;;;;;;36.38;25.10;;;;;;;-0.65;100.00;100701.52;1701698;82;21216;-68
2021/01/10 15:16:31;;;;;;;38.80;26.17;;;;;;;-0.69;100.00;100702.64;1703235;81;22406;-69
2021/01/10 15:19:01;;;;;;;43.52;31.82;;;;;;;-0.71;100.00;100706.59;1693227;82;21209;-72
2021/01/10 15:21:33;;;;;;;49.55;37.35;;;;;;;-0.74;100.00;100710.16;1695840;81;21575;-73
2021/01/10 15:24:04;;;;;;;57.17;39.75;;;;;;;-0.75;100.00;100720.05;1696618;82;21694;-68
2021/01/10 15:26:40;;;;;;;47.70;29.35;;;;;;;-0.75;100.00;100727.73;1697967;82;21183;-71
2021/01/10 15:29:09;;;;;;;36.48;23.87;;;;;;;-0.76;100.00;100727.81;1701928;82;21217;-73
2021/01/10 15:31:39;;;;;;;32.90;21.57;;;;;;;-0.76;100.00;100725.25;1708406;82;21258;-69